createdAt,value
2018-04-06T00:00:53.078Z,998.42
2018-04-06T00:01:53.293Z,998.45
2018-04-06T00:02:53.107Z,998.44
2018-04-06T00:03:53.063Z,998.47
2018-04-06T00:04:53.077Z,998.46
2018-04-06T00:05:52.924Z,998.45
2018-04-06T00:06:52.964Z,998.46
2018-04-06T00:07:53.027Z,998.46
2018-04-06T00:08:52.942Z,998.48
2018-04-06T00:09:52.900Z,998.43
2018-04-06T00:10:52.914Z,998.47
2018-04-06T00:11:52.843Z,998.45
2018-04-06T00:12:52.781Z,998.38
2018-04-06T00:13:52.863Z,998.37
2018-04-06T00:14:52.877Z,998.39
2018-04-06T00:15:52.936Z,998.39
2018-04-06T00:16:52.770Z,998.39
2018-04-06T00:17:52.817Z,998.43
2018-04-06T00:18:52.717Z,998.47
2018-04-06T00:19:52.621Z,998.51
2018-04-06T00:20:52.732Z,998.54
2018-04-06T00:21:52.551Z,998.56
2018-04-06T00:22:52.663Z,998.61
2018-04-06T00:23:52.794Z,998.63
2018-04-06T00:24:52.602Z,998.60
2018-04-06T00:25:52.472Z,998.62
2018-04-06T00:26:52.540Z,998.60
2018-04-06T00:27:52.608Z,998.62
2018-04-06T00:28:52.555Z,998.61
2018-04-06T00:29:52.507Z,998.61
2018-04-06T00:30:52.363Z,998.57
2018-04-06T00:31:52.464Z,998.59
2018-04-06T00:32:52.567Z,998.60
2018-04-06T00:33:52.412Z,998.60
2018-04-06T00:34:52.562Z,998.59
2018-04-06T00:35:52.538Z,998.61
2018-04-06T00:36:52.391Z,998.64
2018-04-06T00:37:52.264Z,998.66
2018-04-06T00:38:52.324Z,998.66
2018-04-06T00:39:52.326Z,998.67
2018-04-06T00:40:52.159Z,998.65
2018-04-06T00:41:52.301Z,998.67
2018-04-06T00:42:52.402Z,998.68
2018-04-06T00:43:52.283Z,998.70
2018-04-06T00:44:52.166Z,998.68
2018-04-06T00:45:52.070Z,998.64
2018-04-06T00:46:52.017Z,998.64
2018-04-06T00:47:52.014Z,998.59
2018-04-06T00:48:52.010Z,998.56
2018-04-06T00:49:51.997Z,998.61
2018-04-06T00:50:51.907Z,998.57
2018-04-06T00:51:51.940Z,998.57
2018-04-06T00:52:51.862Z,998.57
2018-04-06T00:53:51.903Z,998.55
2018-04-06T00:54:51.808Z,998.57
2018-04-06T00:55:51.755Z,998.55
2018-04-06T00:56:51.886Z,998.52
2018-04-06T00:57:51.927Z,998.56
2018-04-06T00:58:51.755Z,998.53
2018-04-06T00:59:51.820Z,998.60
2018-04-06T01:00:51.659Z,998.59
2018-04-06T01:01:51.705Z,998.59
2018-04-06T01:02:51.619Z,998.66
2018-04-06T01:03:51.582Z,998.62
2018-04-06T01:04:51.637Z,998.61
2018-04-06T01:05:51.592Z,998.64
2018-04-06T01:06:51.667Z,998.64
2018-04-06T01:07:51.549Z,998.64
2018-04-06T01:08:51.556Z,998.65
2018-04-06T01:09:51.547Z,998.64
2018-04-06T01:10:51.622Z,998.63
2018-04-06T01:11:51.403Z,998.61
2018-04-06T01:12:51.543Z,998.63
2018-04-06T01:13:51.606Z,998.62
2018-04-06T01:14:51.462Z,998.62
2018-04-06T01:15:51.423Z,998.63
2018-04-06T01:16:51.408Z,998.62
2018-04-06T01:17:51.381Z,998.63
2018-04-06T01:18:51.218Z,998.67
2018-04-06T01:19:51.273Z,998.62
2018-04-06T01:20:51.338Z,998.62
2018-04-06T01:21:51.280Z,998.58
2018-04-06T01:22:51.170Z,998.55
2018-04-06T01:23:51.128Z,998.50
2018-04-06T01:24:51.456Z,998.49
2018-04-06T01:25:51.255Z,998.52
2018-04-06T01:26:51.033Z,998.51
2018-04-06T01:27:51.123Z,998.57
2018-04-06T01:28:50.936Z,998.60
2018-04-06T01:29:50.946Z,998.65
2018-04-06T01:30:51.031Z,998.64
2018-04-06T01:31:50.922Z,998.65
2018-04-06T01:32:51.003Z,998.71
2018-04-06T01:33:50.940Z,998.73
2018-04-06T01:34:50.741Z,998.73
2018-04-06T01:35:50.703Z,998.72
2018-04-06T01:36:50.680Z,998.73
2018-04-06T01:37:50.668Z,998.69
2018-04-06T01:38:50.618Z,998.66
2018-04-06T01:39:50.604Z,998.65
2018-04-06T01:40:50.593Z,998.68
2018-04-06T01:41:50.581Z,998.69
2018-04-06T01:42:50.562Z,998.71
2018-04-06T01:43:50.563Z,998.67
2018-04-06T01:44:50.632Z,998.68
2018-04-06T01:45:50.513Z,998.68
2018-04-06T01:46:50.525Z,998.64
2018-04-06T01:47:50.496Z,998.59
2018-04-06T01:48:50.448Z,998.61
2018-04-06T01:49:50.374Z,998.62
2018-04-06T01:50:50.444Z,998.60
2018-04-06T01:51:50.481Z,998.67
2018-04-06T01:52:50.522Z,998.68
2018-04-06T01:53:50.367Z,998.70
2018-04-06T01:54:50.442Z,998.73
2018-04-06T01:55:50.372Z,998.74
2018-04-06T01:56:50.400Z,998.76
2018-04-06T01:57:50.222Z,998.74
2018-04-06T01:58:50.376Z,998.75
2018-04-06T01:59:50.273Z,998.75
2018-04-06T02:00:50.266Z,998.70
2018-04-06T02:01:50.129Z,998.69
2018-04-06T02:02:50.131Z,998.72
2018-04-06T02:03:50.213Z,998.77
2018-04-06T02:04:50.018Z,998.79
2018-04-06T02:05:49.961Z,998.74
2018-04-06T02:06:49.948Z,998.75
2018-04-06T02:07:49.969Z,998.78
2018-04-06T02:08:49.897Z,998.77
2018-04-06T02:09:49.873Z,998.80
2018-04-06T02:10:49.870Z,998.77
2018-04-06T02:11:49.845Z,998.76
2018-04-06T02:12:49.793Z,998.73
2018-04-06T02:13:49.770Z,998.75
2018-04-06T02:14:49.808Z,998.75
2018-04-06T02:15:49.715Z,998.79
2018-04-06T02:16:49.726Z,998.79
2018-04-06T02:17:49.705Z,998.77
2018-04-06T02:18:49.655Z,998.79
2018-04-06T02:19:49.629Z,998.80
2018-04-06T02:20:49.603Z,998.80
2018-04-06T02:21:49.622Z,998.78
2018-04-06T02:22:49.574Z,998.81
2018-04-06T02:23:49.540Z,998.81
2018-04-06T02:24:49.529Z,998.81
2018-04-06T02:25:49.467Z,998.78
2018-04-06T02:26:49.456Z,998.80
2018-04-06T02:27:49.450Z,998.81
2018-04-06T02:28:49.398Z,998.84
2018-04-06T02:29:49.424Z,998.84
2018-04-06T02:30:49.356Z,998.87
2018-04-06T02:31:49.334Z,998.89
2018-04-06T02:32:49.314Z,998.85
2018-04-06T02:33:49.276Z,998.85
2018-04-06T02:34:49.256Z,998.86
2018-04-06T02:35:49.249Z,998.89
2018-04-06T02:36:49.236Z,998.89
2018-04-06T02:37:49.173Z,998.86
2018-04-06T02:38:49.152Z,998.92
2018-04-06T02:39:49.125Z,998.95
2018-04-06T02:40:49.123Z,998.96
2018-04-06T02:41:49.096Z,998.97
2018-04-06T02:42:49.061Z,998.96
2018-04-06T02:43:49.062Z,998.94
2018-04-06T02:44:49.014Z,998.91
2018-04-06T02:45:48.976Z,998.93
2018-04-06T02:46:48.987Z,998.90
2018-04-06T02:47:48.926Z,998.94
2018-04-06T02:48:48.928Z,998.95
2018-04-06T02:49:48.892Z,998.92
2018-04-06T02:50:48.883Z,998.95
2018-04-06T02:51:48.845Z,999.01
2018-04-06T02:52:48.837Z,999.00
2018-04-06T02:53:48.777Z,999.03
2018-04-06T02:54:48.773Z,999.02
2018-04-06T02:55:48.746Z,999.03
2018-04-06T02:56:48.740Z,998.99
2018-04-06T02:57:48.682Z,999.03
2018-04-06T02:58:48.674Z,999.03
2018-04-06T02:59:48.665Z,999.02
2018-04-06T03:00:48.607Z,999.04
2018-04-06T03:01:48.597Z,999.05
2018-04-06T03:02:48.564Z,999.02
2018-04-06T03:03:48.535Z,999.03
2018-04-06T03:04:48.510Z,999.03
2018-04-06T03:05:48.524Z,999.04
2018-04-06T03:06:48.466Z,999.03
2018-04-06T03:07:48.454Z,998.99
2018-04-06T03:08:48.449Z,998.97
2018-04-06T03:09:48.402Z,998.98
2018-04-06T03:10:48.380Z,998.96
2018-04-06T03:11:48.411Z,998.99
2018-04-06T03:12:48.314Z,998.99
2018-04-06T03:13:48.299Z,999.04
2018-04-06T03:14:48.258Z,999.04
2018-04-06T03:15:48.274Z,999.06
2018-04-06T03:16:48.207Z,999.06
2018-04-06T03:17:48.211Z,999.08
2018-04-06T03:18:48.195Z,999.09
2018-04-06T03:19:48.137Z,999.08
2018-04-06T03:20:48.142Z,999.11
2018-04-06T03:21:48.101Z,999.15
2018-04-06T03:22:48.094Z,999.16
2018-04-06T03:23:48.040Z,999.10
2018-04-06T03:24:48.019Z,999.10
2018-04-06T03:25:48.022Z,999.03
2018-04-06T03:26:47.975Z,999.00
2018-04-06T03:27:47.947Z,999.03
2018-04-06T03:28:47.942Z,999.01
2018-04-06T03:29:47.907Z,999.07
2018-04-06T03:30:47.949Z,999.05
2018-04-06T03:31:47.857Z,999.05
2018-04-06T03:32:47.851Z,999.05
2018-04-06T03:33:47.821Z,999.07
2018-04-06T03:34:47.833Z,999.10
2018-04-06T03:35:47.753Z,999.14
2018-04-06T03:36:47.726Z,999.13
2018-04-06T03:37:47.714Z,999.17
2018-04-06T03:38:47.736Z,999.18
2018-04-06T03:39:47.636Z,999.19
2018-04-06T03:40:47.647Z,999.20
2018-04-06T03:41:47.635Z,999.18
2018-04-06T03:42:48.483Z,999.20
2018-04-06T03:43:50.952Z,999.17
2018-04-06T03:44:47.574Z,999.15
2018-04-06T03:45:47.541Z,999.12
2018-04-06T03:46:47.469Z,999.15
2018-04-06T03:47:47.462Z,999.10
2018-04-06T03:48:47.440Z,999.14
2018-04-06T03:49:47.401Z,999.09
2018-04-06T03:50:47.380Z,999.10
2018-04-06T03:51:47.362Z,999.12
2018-04-06T03:52:47.325Z,999.09
2018-04-06T03:53:47.291Z,999.15
2018-04-06T03:54:47.300Z,999.11
2018-04-06T03:55:47.267Z,999.12
2018-04-06T03:56:47.216Z,999.12
2018-04-06T03:57:47.224Z,999.11
2018-04-06T03:58:47.191Z,999.04
2018-04-06T03:59:47.172Z,999.04
2018-04-06T04:00:47.149Z,999.03
2018-04-06T04:01:47.146Z,999.03
2018-04-06T04:02:47.081Z,999.00
2018-04-06T04:03:47.053Z,999.06
2018-04-06T04:04:47.015Z,999.07
2018-04-06T04:05:47.009Z,999.04
2018-04-06T04:06:46.967Z,999.06
2018-04-06T04:07:46.935Z,999.09
2018-04-06T04:08:46.913Z,999.10
2018-04-06T04:09:46.918Z,999.10
2018-04-06T04:10:46.860Z,999.09
2018-04-06T04:11:46.861Z,999.08
2018-04-06T04:12:46.833Z,999.09
2018-04-06T04:13:46.860Z,999.09
2018-04-06T04:14:46.784Z,999.08
2018-04-06T04:15:46.744Z,999.10
2018-04-06T04:16:46.743Z,999.12
2018-04-06T04:17:46.696Z,999.13
2018-04-06T04:18:46.747Z,999.19
2018-04-06T04:19:46.687Z,999.14
2018-04-06T04:20:46.650Z,999.15
2018-04-06T04:21:46.584Z,999.13
2018-04-06T04:22:46.588Z,999.15
2018-04-06T04:23:46.536Z,999.15
2018-04-06T04:24:46.517Z,999.14
2018-04-06T04:25:46.509Z,999.11
2018-04-06T04:26:46.473Z,999.14
2018-04-06T04:27:46.464Z,999.15
2018-04-06T04:28:46.415Z,999.16
2018-04-06T04:29:46.409Z,999.17
2018-04-06T04:30:46.375Z,999.18
2018-04-06T04:31:46.330Z,999.22
2018-04-06T04:32:46.332Z,999.16
2018-04-06T04:33:46.273Z,999.17
2018-04-06T04:34:46.286Z,999.20
2018-04-06T04:35:46.260Z,999.18
2018-04-06T04:36:46.211Z,999.15
2018-04-06T04:37:46.205Z,999.17
2018-04-06T04:38:46.165Z,999.12
2018-04-06T04:39:46.134Z,999.09
2018-04-06T04:40:46.132Z,999.13
2018-04-06T04:41:46.095Z,999.11
2018-04-06T04:42:46.069Z,999.13
2018-04-06T04:43:46.043Z,999.14
2018-04-06T04:44:46.009Z,999.16
2018-04-06T04:45:46.029Z,999.14
2018-04-06T04:46:46.019Z,999.15
2018-04-06T04:47:45.970Z,999.11
2018-04-06T04:48:45.944Z,999.11
2018-04-06T04:49:45.923Z,999.14
2018-04-06T04:50:45.872Z,999.10
2018-04-06T04:51:45.831Z,999.13
2018-04-06T04:52:45.813Z,999.15
2018-04-06T04:53:45.787Z,999.17
2018-04-06T04:54:45.761Z,999.19
2018-04-06T04:55:45.743Z,999.18
2018-04-06T04:56:45.724Z,999.19
2018-04-06T04:57:45.678Z,999.17
2018-04-06T04:58:45.724Z,999.20
2018-04-06T04:59:45.635Z,999.20
2018-04-06T05:00:45.607Z,999.20
2018-04-06T05:01:45.583Z,999.18
2018-04-06T05:02:45.561Z,999.22
2018-04-06T05:03:45.548Z,999.24
2018-04-06T05:04:45.510Z,999.23
2018-04-06T05:05:45.505Z,999.23
2018-04-06T05:06:45.478Z,999.24
2018-04-06T05:07:45.438Z,999.21
2018-04-06T05:08:45.415Z,999.23
2018-04-06T05:09:45.413Z,999.20
2018-04-06T05:10:45.390Z,999.21
2018-04-06T05:11:45.344Z,999.24
2018-04-06T05:12:45.317Z,999.24
2018-04-06T05:13:45.322Z,999.22
2018-04-06T05:14:45.283Z,999.23
2018-04-06T05:15:45.246Z,999.26
2018-04-06T05:16:45.220Z,999.27
2018-04-06T05:17:45.186Z,999.26
2018-04-06T05:18:45.164Z,999.24
2018-04-06T05:19:45.147Z,999.27
2018-04-06T05:20:45.129Z,999.28
2018-04-06T05:21:45.105Z,999.26
2018-04-06T05:22:45.065Z,999.29
2018-04-06T05:23:45.040Z,999.35
2018-04-06T05:24:45.007Z,999.34
2018-04-06T05:25:44.978Z,999.35
2018-04-06T05:26:44.990Z,999.36
2018-04-06T05:27:44.938Z,999.37
2018-04-06T05:28:44.918Z,999.31
2018-04-06T05:29:44.899Z,999.33
2018-04-06T05:30:44.860Z,999.34
2018-04-06T05:31:44.831Z,999.36
2018-04-06T05:32:44.848Z,999.38
2018-04-06T05:33:44.772Z,999.38
2018-04-06T05:34:44.790Z,999.42
2018-04-06T05:35:44.738Z,999.40
2018-04-06T05:36:44.715Z,999.44
2018-04-06T05:37:44.699Z,999.43
2018-04-06T05:38:44.732Z,999.47
2018-04-06T05:39:44.664Z,999.46
2018-04-06T05:40:44.680Z,999.47
2018-04-06T05:41:44.585Z,999.44
2018-04-06T05:42:44.572Z,999.40
2018-04-06T05:43:44.536Z,999.47
2018-04-06T05:44:44.506Z,999.47
2018-04-06T05:45:44.510Z,999.50
2018-04-06T05:46:44.451Z,999.54
2018-04-06T05:47:44.427Z,999.53
2018-04-06T05:48:44.408Z,999.55
2018-04-06T05:49:44.415Z,999.56
2018-04-06T05:50:44.350Z,999.55
2018-04-06T05:51:44.357Z,999.51
2018-04-06T05:52:44.310Z,999.48
2018-04-06T05:53:44.287Z,999.49
2018-04-06T05:54:44.260Z,999.50
2018-04-06T05:55:44.232Z,999.52
2018-04-06T05:56:44.230Z,999.53
2018-04-06T05:57:44.222Z,999.55
2018-04-06T05:58:44.173Z,999.56
2018-04-06T05:59:44.162Z,999.59
2018-04-06T06:00:44.167Z,999.57
2018-04-06T06:01:44.115Z,999.59
2018-04-06T06:02:44.071Z,999.57
2018-04-06T06:03:44.039Z,999.60
2018-04-06T06:04:44.058Z,999.59
2018-04-06T06:05:44.049Z,999.62
2018-04-06T06:06:43.956Z,999.63
2018-04-06T06:07:43.935Z,999.62
2018-04-06T06:08:43.932Z,999.66
2018-04-06T06:09:43.943Z,999.66
2018-04-06T06:10:43.869Z,999.64
2018-04-06T06:11:43.864Z,999.64
2018-04-06T06:12:43.822Z,999.61
2018-04-06T06:13:43.787Z,999.62
2018-04-06T06:14:43.791Z,999.59
2018-04-06T06:15:43.755Z,999.62
2018-04-06T06:16:43.737Z,999.63
2018-04-06T06:17:43.797Z,999.66
2018-04-06T06:18:43.655Z,999.70
2018-04-06T06:19:43.636Z,999.71
2018-04-06T06:20:43.652Z,999.74
2018-04-06T06:21:43.633Z,999.77
2018-04-06T06:22:43.624Z,999.80
2018-04-06T06:23:43.536Z,999.86
2018-04-06T06:24:43.903Z,999.81
2018-04-06T06:25:43.510Z,999.85
2018-04-06T06:26:43.583Z,999.84
2018-04-06T06:27:43.450Z,999.88
2018-04-06T06:28:43.416Z,999.89
2018-04-06T06:29:43.413Z,999.90
2018-04-06T06:30:43.383Z,999.94
2018-04-06T06:31:43.350Z,999.96
2018-04-06T06:32:43.340Z,999.90
2018-04-06T06:33:43.323Z,999.88
2018-04-06T06:34:43.306Z,999.88
2018-04-06T06:35:43.314Z,999.95
2018-04-06T06:36:43.277Z,999.95
2018-04-06T06:37:43.240Z,999.93
2018-04-06T06:38:43.193Z,999.96
2018-04-06T06:39:43.177Z,1000.07
2018-04-06T06:40:43.154Z,1000.12
2018-04-06T06:41:43.131Z,1000.29
2018-04-06T06:42:43.132Z,1000.42
2018-04-06T06:43:43.094Z,1000.68
2018-04-06T06:44:43.074Z,1000.51
2018-04-06T06:45:43.077Z,1000.30
2018-04-06T06:46:43.025Z,1000.19
2018-04-06T06:47:43.002Z,1000.17
2018-04-06T06:48:42.980Z,1000.26
2018-04-06T06:49:42.983Z,1000.51
2018-04-06T06:50:42.940Z,1000.33
2018-04-06T06:51:42.914Z,1000.11
2018-04-06T06:52:42.980Z,1000.17
2018-04-06T06:53:42.921Z,1000.10
2018-04-06T06:54:42.858Z,999.88
2018-04-06T06:55:42.861Z,999.97
2018-04-06T06:56:42.837Z,1000.27
2018-04-06T06:57:42.815Z,1000.16
2018-04-06T06:58:42.779Z,1000.14
2018-04-06T06:59:42.758Z,1000.18
2018-04-06T07:00:42.762Z,1000.08
2018-04-06T07:01:51.850Z,1000.00
2018-04-06T07:03:38.063Z,1000.13
2018-04-06T07:04:37.792Z,1000.20
2018-04-06T07:06:33.726Z,1000.04
2018-04-06T07:07:34.000Z,1000.19
2018-04-06T07:08:33.947Z,1000.35
2018-04-06T07:09:34.915Z,1000.35
2018-04-06T07:10:33.923Z,1000.26
2018-04-06T07:11:33.518Z,1000.29
2018-04-06T07:12:33.497Z,1000.30
2018-04-06T07:13:33.518Z,1000.34
2018-04-06T07:14:33.451Z,1000.22
2018-04-06T07:15:33.456Z,1000.19
2018-04-06T07:16:33.404Z,1000.29
2018-04-06T07:17:33.406Z,1000.27
2018-04-06T07:18:33.362Z,1000.20
2018-04-06T07:19:33.374Z,1000.15
2018-04-06T07:20:33.322Z,1000.14
2018-04-06T07:21:33.329Z,1000.17
2018-04-06T07:22:33.468Z,1000.05
2018-04-06T07:23:33.303Z,1000.09
2018-04-06T07:24:33.245Z,1000.20
2018-04-06T07:25:33.224Z,1000.17
2018-04-06T07:26:33.703Z,1000.10
2018-04-06T07:27:33.241Z,1000.11
2018-04-06T07:28:33.195Z,1000.21
2018-04-06T07:29:33.177Z,1000.19
2018-04-06T07:30:33.146Z,1000.18
2018-04-06T07:31:33.141Z,1000.16
2018-04-06T07:32:33.146Z,1000.11
2018-04-06T07:33:33.125Z,1000.21
2018-04-06T07:34:33.105Z,1000.23
2018-04-06T07:35:33.075Z,1000.21
2018-04-06T07:36:33.079Z,1000.22
2018-04-06T07:37:33.034Z,1000.25
2018-04-06T07:38:33.014Z,1000.23
2018-04-06T07:39:33.009Z,1000.22
2018-04-06T07:40:32.987Z,1000.24
2018-04-06T07:41:33.023Z,1000.19
2018-04-06T07:42:32.975Z,1000.16
2018-04-06T07:43:32.936Z,1000.16
2018-04-06T07:44:32.947Z,1000.15
2018-04-06T07:45:32.959Z,1000.15
2018-04-06T07:46:32.904Z,1000.23
2018-04-06T07:47:32.881Z,1000.15
2018-04-06T07:48:32.849Z,1000.11
2018-04-06T07:49:32.864Z,1000.09
2018-04-06T07:50:32.854Z,1000.13
2018-04-06T07:51:32.856Z,1000.13
2018-04-06T07:52:32.855Z,1000.10
2018-04-06T07:53:32.815Z,1000.14
2018-04-06T07:54:32.801Z,1000.14
2018-04-06T07:55:32.783Z,1000.14
2018-04-06T07:56:32.762Z,1000.14
2018-04-06T07:57:32.759Z,1000.13
2018-04-06T07:58:32.769Z,1000.12
2018-04-06T07:59:32.725Z,1000.15
2018-04-06T08:00:32.726Z,1000.19
2018-04-06T08:01:32.713Z,1000.22
2018-04-06T08:02:32.689Z,1000.21
2018-04-06T08:03:32.684Z,1000.25
2018-04-06T08:04:32.649Z,1000.20
2018-04-06T08:05:32.662Z,1000.26
2018-04-06T08:06:32.665Z,1000.27
2018-04-06T08:07:32.624Z,1000.28
2018-04-06T08:08:32.622Z,1000.20
2018-04-06T08:09:32.630Z,1000.18
2018-04-06T08:10:32.612Z,1000.16
2018-04-06T08:11:32.594Z,1000.21
2018-04-06T08:12:32.591Z,1000.24
2018-04-06T08:13:32.567Z,1000.23
2018-04-06T08:14:32.555Z,1000.20
2018-04-06T08:15:32.552Z,1000.20
2018-04-06T08:16:32.545Z,1000.17
2018-04-06T08:17:32.692Z,1000.12
2018-04-06T08:18:32.542Z,1000.16
2018-04-06T08:19:32.507Z,1000.12
2018-04-06T08:20:33.096Z,1000.14
2018-04-06T08:21:32.485Z,1000.10
2018-04-06T08:22:32.524Z,1000.14
2018-04-06T08:23:32.456Z,1000.12
2018-04-06T08:24:32.476Z,1000.11
2018-04-06T08:25:32.464Z,1000.15
2018-04-06T08:26:32.462Z,1000.16
2018-04-06T08:27:32.484Z,1000.15
2018-04-06T08:28:32.425Z,1000.16
2018-04-06T08:29:32.414Z,1000.13
2018-04-06T08:30:32.409Z,1000.13
2018-04-06T08:31:32.388Z,1000.13
2018-04-06T08:32:32.380Z,1000.03
2018-04-06T08:33:32.361Z,999.97
2018-04-06T08:34:32.353Z,999.92
2018-04-06T08:35:32.358Z,999.92
2018-04-06T08:36:32.378Z,999.93
2018-04-06T08:37:32.417Z,999.90
2018-04-06T08:38:32.333Z,999.94
2018-04-06T08:39:32.306Z,999.96
2018-04-06T08:40:32.308Z,999.94
2018-04-06T08:41:32.332Z,999.93
2018-04-06T08:42:32.311Z,999.92
2018-04-06T08:43:32.304Z,999.95
2018-04-06T08:44:32.326Z,999.91
2018-04-06T08:45:32.321Z,999.90
2018-04-06T08:46:32.342Z,999.86
2018-04-06T08:47:32.279Z,999.87
2018-04-06T08:48:32.289Z,999.83
2018-04-06T08:49:32.256Z,999.83
2018-04-06T08:50:32.239Z,999.86
2018-04-06T08:51:32.278Z,999.81
2018-04-06T08:52:32.271Z,999.88
2018-04-06T08:53:32.255Z,999.85
2018-04-06T08:54:32.312Z,999.85
2018-04-06T08:55:32.195Z,999.85
2018-04-06T08:56:32.244Z,999.81
2018-04-06T08:57:32.209Z,999.70
2018-04-06T08:58:32.208Z,999.67
2018-04-06T08:59:32.217Z,999.67
2018-04-06T09:00:32.219Z,999.67
2018-04-06T09:01:32.284Z,999.63
2018-04-06T09:02:32.266Z,999.63
2018-04-06T09:03:32.315Z,999.58
2018-04-06T09:04:32.194Z,999.62
2018-04-06T09:05:32.142Z,999.58
2018-04-06T09:06:32.165Z,999.55
2018-04-06T09:07:32.247Z,999.59
2018-04-06T09:08:32.130Z,999.59
2018-04-06T09:09:32.376Z,999.52
2018-04-06T09:10:32.151Z,999.51
2018-04-06T09:11:32.140Z,999.51
2018-04-06T09:12:32.137Z,999.47
2018-04-06T09:13:32.106Z,999.54
2018-04-06T09:14:32.103Z,999.56
2018-04-06T09:15:32.127Z,999.52
2018-04-06T09:16:32.138Z,999.54
2018-04-06T09:17:32.081Z,999.54
2018-04-06T09:18:32.083Z,999.47
2018-04-06T09:19:32.089Z,999.45
2018-04-06T09:20:32.110Z,999.39
2018-04-06T09:21:32.173Z,999.43
2018-04-06T09:22:32.185Z,999.47
2018-04-06T09:23:32.026Z,999.51
2018-04-06T09:24:32.032Z,999.48
2018-04-06T09:25:32.132Z,999.49
2018-04-06T09:26:32.039Z,999.52
2018-04-06T09:27:32.036Z,999.53
2018-04-06T09:28:32.039Z,999.51
2018-04-06T09:29:32.023Z,999.50
2018-04-06T09:30:32.040Z,999.45
2018-04-06T09:31:32.049Z,999.49
2018-04-06T09:32:32.007Z,999.42
2018-04-06T09:33:32.039Z,999.43
2018-04-06T09:34:32.026Z,999.45
2018-04-06T09:35:31.990Z,999.43
2018-04-06T09:36:31.998Z,999.52
2018-04-06T09:37:32.006Z,999.76
2018-04-06T09:38:31.977Z,999.81
2018-04-06T09:39:31.973Z,999.79
2018-04-06T09:40:31.998Z,999.77
2018-04-06T09:41:31.960Z,999.73
2018-04-06T09:42:31.972Z,999.60
2018-04-06T09:43:31.964Z,999.59
2018-04-06T09:44:31.953Z,999.57
2018-04-06T09:45:31.962Z,999.58
2018-04-06T09:46:32.176Z,999.60
2018-04-06T09:47:31.948Z,999.60
2018-04-06T09:48:31.962Z,999.61
2018-04-06T09:49:32.001Z,999.61
2018-04-06T09:50:32.078Z,999.57
2018-04-06T09:51:32.038Z,999.55
2018-04-06T09:52:31.949Z,999.57
2018-04-06T09:53:31.999Z,999.47
2018-04-06T09:54:31.972Z,999.44
2018-04-06T09:55:31.930Z,999.45
2018-04-06T09:56:31.908Z,999.46
2018-04-06T09:57:31.924Z,999.47
2018-04-06T09:58:31.922Z,999.49
2018-04-06T09:59:32.620Z,999.44
2018-04-06T10:00:31.952Z,999.47
2018-04-06T10:01:31.892Z,999.44
2018-04-06T10:02:31.937Z,999.50
2018-04-06T10:03:31.906Z,999.40
2018-04-06T10:04:31.900Z,999.40
2018-04-06T10:05:31.898Z,999.41
2018-04-06T10:06:31.887Z,999.41
2018-04-06T10:07:31.854Z,999.39
2018-04-06T10:08:31.870Z,999.40
2018-04-06T10:09:31.910Z,999.36
2018-04-06T10:10:31.851Z,999.36
2018-04-06T10:11:31.854Z,999.44
2018-04-06T10:12:31.850Z,999.40
2018-04-06T10:13:31.833Z,999.39
2018-04-06T10:14:31.841Z,999.38
2018-04-06T10:15:31.842Z,999.35
2018-04-06T10:16:31.870Z,999.31
2018-04-06T10:17:31.831Z,999.29
2018-04-06T10:18:31.872Z,999.31
2018-04-06T10:19:31.838Z,999.32
2018-04-06T10:20:31.796Z,999.31
2018-04-06T10:21:31.825Z,999.31
2018-04-06T10:22:31.812Z,999.31
2018-04-06T10:23:31.817Z,999.30
2018-04-06T10:24:31.797Z,999.34
2018-04-06T10:25:31.833Z,999.33
2018-04-06T10:26:31.827Z,999.43
2018-04-06T10:27:31.809Z,999.45
2018-04-06T10:28:31.788Z,999.51
2018-04-06T10:29:31.792Z,999.51
2018-04-06T10:30:31.782Z,999.45
2018-04-06T10:31:31.813Z,999.47
2018-04-06T10:32:31.816Z,999.41
2018-04-06T10:33:31.789Z,999.47
2018-04-06T10:34:31.865Z,999.44
2018-04-06T10:35:31.771Z,999.44
2018-04-06T10:36:31.810Z,999.48
2018-04-06T10:37:31.793Z,999.43
2018-04-06T10:38:31.814Z,999.38
2018-04-06T10:39:31.765Z,999.33
2018-04-06T10:40:31.937Z,999.41
2018-04-06T10:41:32.052Z,999.50
2018-04-06T10:42:31.939Z,999.44
2018-04-06T10:43:31.962Z,999.40
2018-04-06T10:44:31.849Z,999.39
2018-04-06T10:45:31.892Z,999.32
2018-04-06T10:46:31.882Z,999.33
2018-04-06T10:47:31.950Z,999.28
2018-04-06T10:48:31.958Z,999.32
2018-04-06T10:49:31.768Z,999.26
2018-04-06T10:50:31.845Z,999.25
2018-04-06T10:51:32.038Z,999.18
2018-04-06T10:52:33.960Z,999.10
2018-04-06T10:53:31.949Z,999.16
2018-04-06T10:54:32.160Z,999.10
2018-04-06T10:55:31.830Z,999.10
2018-04-06T10:56:31.910Z,999.08
2018-04-06T10:57:32.261Z,999.06
2018-04-06T10:58:31.903Z,999.09
2018-04-06T10:59:31.890Z,999.08
2018-04-06T11:00:31.907Z,999.04
2018-04-06T11:01:31.756Z,998.99
2018-04-06T11:02:31.861Z,999.00
2018-04-06T11:03:31.804Z,999.01
2018-04-06T11:04:31.758Z,998.97
2018-04-06T11:05:31.863Z,999.05
2018-04-06T11:06:32.024Z,999.02
2018-04-06T11:07:31.848Z,999.07
2018-04-06T11:08:31.868Z,999.10
2018-04-06T11:09:31.843Z,999.03
2018-04-06T11:10:31.741Z,999.02
2018-04-06T11:11:31.697Z,999.00
2018-04-06T11:12:31.694Z,998.96
2018-04-06T11:13:31.673Z,998.96
2018-04-06T11:14:31.682Z,998.94
2018-04-06T11:15:31.675Z,998.89
2018-04-06T11:16:31.678Z,998.81
2018-04-06T11:17:31.677Z,998.84
2018-04-06T11:18:31.718Z,998.81
2018-04-06T11:19:31.686Z,998.82
2018-04-06T11:20:31.644Z,998.83
2018-04-06T11:21:31.676Z,998.81
2018-04-06T11:22:31.660Z,998.85
2018-04-06T11:23:31.698Z,998.83
2018-04-06T11:24:31.652Z,998.78
2018-04-06T11:25:31.652Z,998.77
2018-04-06T11:26:31.698Z,998.76
2018-04-06T11:27:31.666Z,998.70
2018-04-06T11:28:31.658Z,998.70
2018-04-06T11:29:31.649Z,998.68
2018-04-06T11:30:31.651Z,998.63
2018-04-06T11:31:31.657Z,998.60
2018-04-06T11:32:31.657Z,998.58
2018-04-06T11:33:31.673Z,998.60
2018-04-06T11:34:31.682Z,998.56
2018-04-06T11:35:31.675Z,998.55
2018-04-06T11:36:31.626Z,998.53
2018-04-06T11:37:31.658Z,998.50
2018-04-06T11:38:31.644Z,998.46
2018-04-06T11:39:31.641Z,998.51
2018-04-06T11:40:31.653Z,998.47
2018-04-06T11:41:31.640Z,998.46
2018-04-06T11:42:31.648Z,998.42
2018-04-06T11:43:31.686Z,998.38
2018-04-06T11:44:31.644Z,998.39
2018-04-06T11:45:31.653Z,998.31
2018-04-06T11:46:31.629Z,998.39
2018-04-06T11:47:31.687Z,998.37
2018-04-06T11:48:31.650Z,998.34
2018-04-06T11:49:31.652Z,998.26
2018-04-06T11:50:31.688Z,998.27
2018-04-06T11:51:31.682Z,998.25
2018-04-06T11:52:31.655Z,998.24
2018-04-06T11:53:31.662Z,998.19
2018-04-06T11:54:31.630Z,998.16
2018-04-06T11:55:31.656Z,998.15
2018-04-06T11:56:31.652Z,998.17
2018-04-06T11:57:31.688Z,998.15
2018-04-06T11:58:31.697Z,998.13
2018-04-06T11:59:31.637Z,998.14
2018-04-06T12:00:31.643Z,998.14
2018-04-06T12:01:31.673Z,998.14
2018-04-06T12:02:31.627Z,998.14
2018-04-06T12:03:31.623Z,998.16
2018-04-06T12:04:31.633Z,998.11
2018-04-06T12:05:31.617Z,998.05
2018-04-06T12:06:31.618Z,998.05
2018-04-06T12:07:31.672Z,998.04
2018-04-06T12:08:31.648Z,998.07
2018-04-06T12:09:31.621Z,998.09
2018-04-06T12:10:31.609Z,997.99
2018-04-06T12:11:31.606Z,997.97
2018-04-06T12:12:31.640Z,997.97
2018-04-06T12:13:31.565Z,997.99
2018-04-06T12:14:31.580Z,997.94
2018-04-06T12:15:31.569Z,997.97
2018-04-06T12:16:31.567Z,997.94
2018-04-06T12:17:31.557Z,997.95
2018-04-06T12:18:31.662Z,997.95
2018-04-06T12:19:31.572Z,998.02
2018-04-06T12:20:31.559Z,997.95
2018-04-06T12:21:31.553Z,997.94
2018-04-06T12:22:32.463Z,997.93
2018-04-06T12:23:31.540Z,997.92
2018-04-06T12:24:31.547Z,997.91
2018-04-06T12:25:31.708Z,997.94
2018-04-06T12:26:31.534Z,997.87
2018-04-06T12:27:31.538Z,997.95